Time;durP1;ratioP1;P1;durP2;ratioP2;P2;SDS_P1;SDS_P2;PMS_P1;PMS_P2;Temp;Humidity;BMP_temperature;BMP_pressure;BME280_temperature;BME280_humidity;BME280_pressure;Samples;Min_cycle;Max_cycle;Signal;HPM_P1;HPM_P2
2024/03/24 00:01:02;;;;;;;2.70;1.10;;;;;;;13.51;45.07;100421.19;4983816;28;20426;-63
2024/03/24 00:03:27;;;;;;;4.82;0.93;;;;;;;13.49;43.72;100413.25;4999605;28;20053;-63
2024/03/24 00:05:53;;;;;;;6.18;1.80;;;;;;;13.52;43.79;100420.16;5018279;28;20073;-63
2024/03/24 00:08:18;;;;;;;1.90;1.13;;;;;;;13.49;44.26;100412.41;5018564;28;20036;-63
2024/03/24 00:10:44;;;;;;;1.10;0.80;;;;;;;13.47;44.29;100403.66;5001908;28;20121;-63
2024/03/24 00:13:09;;;;;;;2.45;1.02;;;;;;;13.47;44.16;100404.50;5019046;28;20046;-63
2024/03/24 00:15:34;;;;;;;3.38;0.90;;;;;;;13.47;44.20;100409.03;5000505;28;20116;-62
2024/03/24 00:17:59;;;;;;;2.55;1.00;;;;;;;13.45;44.67;100408.34;5015945;28;20026;-62
2024/03/24 00:20:25;;;;;;;2.22;1.38;;;;;;;13.43;45.16;100406.66;4982343;28;20033;-63
2024/03/24 00:22:51;;;;;;;1.45;1.10;;;;;;;13.41;45.39;100407.81;5015906;28;20037;-62
2024/03/24 00:25:16;;;;;;;1.75;1.27;;;;;;;13.39;43.93;100401.75;5015670;28;20515;-63
2024/03/24 00:27:42;;;;;;;1.80;0.95;;;;;;;13.37;44.57;100393.81;5015860;28;20083;-62
2024/03/24 00:30:09;;;;;;;2.10;0.90;;;;;;;13.35;44.92;100389.63;4998300;28;20527;-62
2024/03/24 00:32:34;;;;;;;1.23;0.82;;;;;;;13.32;43.69;100390.78;4981824;28;20408;-63
2024/03/24 00:34:59;;;;;;;5.15;1.15;;;;;;;13.30;44.81;100392.78;4998146;28;20493;-63
2024/03/24 00:37:25;;;;;;;5.78;1.23;;;;;;;13.29;44.25;100404.53;4981959;28;20038;-62
2024/03/24 00:39:52;;;;;;;4.07;1.00;;;;;;;13.30;45.06;100398.16;4997884;28;20034;-63
2024/03/24 00:42:18;;;;;;;3.35;1.27;;;;;;;13.27;45.26;100395.78;4998078;28;20038;-63
2024/03/24 00:44:43;;;;;;;3.80;1.40;;;;;;;13.25;44.88;100397.81;4997858;28;20117;-63
2024/03/24 00:47:08;;;;;;;4.63;1.30;;;;;;;13.19;44.64;100384.97;4981644;28;20080;-62
2024/03/24 00:49:34;;;;;;;3.05;1.15;;;;;;;13.21;45.23;100396.41;4999626;28;20056;-63
2024/03/24 00:51:59;;;;;;;3.05;1.23;;;;;;;13.19;45.67;100387.66;4998066;28;20041;-62
2024/03/24 00:54:24;;;;;;;4.90;1.77;;;;;;;13.20;45.14;100381.28;4997788;28;20034;-63
2024/03/24 00:56:49;;;;;;;4.10;1.40;;;;;;;13.19;44.25;100378.75;4997682;28;20061;-63
2024/03/24 00:59:15;;;;;;;3.13;1.40;;;;;;;13.21;45.39;100384.81;5015287;28;20129;-63
2024/03/24 01:01:40;;;;;;;2.85;1.10;;;;;;;13.20;45.92;100383.97;5015252;28;20060;-63
2024/03/24 01:04:06;;;;;;;3.85;1.42;;;;;;;13.19;45.02;100390.34;5015075;28;20033;-62
2024/03/24 01:06:32;;;;;;;3.00;1.60;;;;;;;13.22;44.78;100379.28;5015223;28;20092;-63
2024/03/24 01:08:57;;;;;;;4.63;1.70;;;;;;;13.21;45.51;100382.09;5015087;28;20064;-62
2024/03/24 01:11:22;;;;;;;3.72;1.60;;;;;;;13.20;44.84;100381.28;5015154;28;20041;-63
2024/03/24 01:13:47;;;;;;;3.28;1.40;;;;;;;13.21;45.50;100372.19;4997320;28;20045;-62
2024/03/24 01:16:14;;;;;;;2.63;1.17;;;;;;;13.24;45.79;100366.50;4981164;28;20053;-62
2024/03/24 01:18:39;;;;;;;4.32;1.58;;;;;;;13.27;44.81;100360.81;4981015;28;20061;-63
2024/03/24 01:21:06;;;;;;;3.03;1.73;;;;;;;13.30;45.36;100365.03;4980977;28;20506;-63
2024/03/24 01:23:32;;;;;;;4.80;2.10;;;;;;;13.30;44.87;100354.28;4997463;28;20042;-63
2024/03/24 01:25:57;;;;;;;4.68;1.70;;;;;;;13.29;45.46;100350.75;5014758;28;20040;-63
2024/03/24 01:28:22;;;;;;;1.83;1.48;;;;;;;13.29;45.45;100349.88;5014703;28;20061;-63
2024/03/24 01:30:48;;;;;;;5.25;1.77;;;;;;;13.29;44.84;100345.34;5014486;28;20513;-62
2024/03/24 01:33:13;;;;;;;6.70;2.00;;;;;;;13.28;45.37;100345.53;4997029;28;20057;-63
2024/03/24 01:35:47;;;;;;;6.35;2.00;;;;;;;13.33;45.09;100340.50;4997027;28;20477;-63
2024/03/24 01:38:13;;;;;;;3.30;1.55;;;;;;;13.32;44.74;100344.19;4997624;28;20052;-63
2024/03/24 01:40:51;;;;;;;3.92;1.77;;;;;;;13.32;44.83;100334.28;4981032;28;20025;-62
2024/03/24 01:43:17;;;;;;;5.40;2.13;;;;;;;13.34;45.92;100340.34;4980103;28;20021;-63
2024/03/24 01:45:43;;;;;;;2.42;1.55;;;;;;;13.36;45.25;100340.19;4980295;28;20581;-63
2024/03/24 01:48:09;;;;;;;6.75;2.03;;;;;;;13.36;45.74;100337.50;4996978;28;20105;-63
2024/03/24 01:50:34;;;;;;;4.47;1.73;;;;;;;13.32;45.77;100328.91;5007922;28;20104;-63
2024/03/24 01:53:01;;;;;;;7.03;1.85;;;;;;;13.33;45.69;100330.59;4999619;28;20475;-63
2024/03/24 01:55:26;;;;;;;4.72;1.98;;;;;;;13.36;45.57;100322.22;4999813;28;20025;-63
2024/03/24 01:57:52;;;;;;;6.47;2.20;;;;;;;13.35;45.67;100316.97;5012846;28;20050;-63
2024/03/24 02:00:17;;;;;;;4.07;1.58;;;;;;;13.37;46.27;100318.50;5012638;28;20414;-63
2024/03/24 02:02:43;;;;;;;3.95;1.67;;;;;;;13.35;44.68;100315.13;5013023;28;20037;-62
2024/03/24 02:05:08;;;;;;;7.38;1.90;;;;;;;13.37;45.47;100313.13;5014158;28;20029;-63
2024/03/24 02:07:34;;;;;;;4.65;1.58;;;;;;;13.34;45.35;100308.06;5012807;28;20026;-63
2024/03/24 02:09:59;;;;;;;3.55;1.35;;;;;;;13.30;45.63;100312.09;5013003;28;20423;-63
2024/03/24 02:12:25;;;;;;;3.28;0.90;;;;;;;13.28;46.15;100302.50;5012541;28;20033;-65
2024/03/24 02:14:50;;;;;;;5.32;2.42;;;;;;;13.22;46.03;100301.28;5012717;28;20046;-65
2024/03/24 02:17:16;;;;;;;2.35;1.17;;;;;;;13.20;46.55;100311.38;5013007;28;20171;-66
2024/03/24 02:19:41;;;;;;;4.35;1.60;;;;;;;13.13;46.55;100294.16;5012877;28;20529;-68
2024/03/24 02:22:06;;;;;;;3.10;1.45;;;;;;;13.07;46.28;100289.41;4996187;28;20030;-67
2024/03/24 02:24:32;;;;;;;6.65;2.28;;;;;;;13.02;46.09;100291.72;5015933;28;20056;-67
2024/03/24 02:26:57;;;;;;;9.38;1.67;;;;;;;13.01;46.60;100290.00;5017328;28;20045;-67
2024/03/24 02:29:22;;;;;;;1.98;1.50;;;;;;;12.99;46.39;100288.47;5000628;28;20030;-69
2024/03/24 02:31:48;;;;;;;5.45;1.25;;;;;;;12.93;45.78;100275.66;5015530;28;20077;-69
2024/03/24 02:34:13;;;;;;;1.75;0.98;;;;;;;12.90;46.22;100268.75;5012612;28;20104;-69
2024/03/24 02:36:38;;;;;;;4.05;1.30;;;;;;;12.88;45.90;100278.84;5013515;28;20046;-69
2024/03/24 02:39:05;;;;;;;4.60;1.70;;;;;;;12.87;46.00;100263.69;5012373;28;20038;-68
2024/03/24 02:41:33;;;;;;;2.30;1.20;;;;;;;12.84;46.80;100264.03;4996247;28;20034;-68
2024/03/24 02:43:58;;;;;;;4.57;1.60;;;;;;;12.83;46.67;100256.97;5012404;28;20417;-67
2024/03/24 02:46:24;;;;;;;4.10;1.20;;;;;;;12.82;45.83;100244.53;5010943;28;20038;-67
2024/03/24 02:48:49;;;;;;;3.60;1.33;;;;;;;12.82;46.78;100241.84;5012376;28;20040;-67
2024/03/24 02:51:14;;;;;;;1.92;1.13;;;;;;;12.78;47.48;100241.34;4978559;28;20427;-67
2024/03/24 02:53:40;;;;;;;2.47;1.20;;;;;;;12.79;46.00;100242.16;4993715;28;20489;-67
2024/03/24 02:56:05;;;;;;;8.35;1.65;;;;;;;12.81;46.34;100245.53;4977040;28;20038;-67
2024/03/24 02:58:30;;;;;;;5.68;1.40;;;;;;;12.82;46.30;100237.31;5012251;28;20049;-67
2024/03/24 03:00:56;;;;;;;1.60;1.25;;;;;;;12.86;46.41;100237.84;5012008;28;20041;-66
2024/03/24 03:03:21;;;;;;;1.88;1.30;;;;;;;12.88;46.24;100235.84;5012043;28;20113;-67
2024/03/24 03:05:47;;;;;;;4.47;1.40;;;;;;;12.94;47.33;100235.19;5012223;28;20042;-67
2024/03/24 03:08:12;;;;;;;7.45;1.20;;;;;;;12.93;47.25;100225.44;5012314;28;20041;-66
2024/03/24 03:10:39;;;;;;;3.78;2.20;;;;;;;12.95;47.02;100236.91;5012205;28;20508;-66
2024/03/24 03:13:04;;;;;;;2.95;1.45;;;;;;;12.93;46.99;100230.81;4996091;28;20416;-66
2024/03/24 03:15:30;;;;;;;4.30;1.60;;;;;;;12.93;46.54;100233.50;5013276;28;20118;-66
2024/03/24 03:17:56;;;;;;;6.30;1.67;;;;;;;12.95;46.87;100230.69;5016581;28;20040;-66
2024/03/24 03:20:21;;;;;;;2.08;1.30;;;;;;;12.97;46.09;100226.81;5017120;28;20041;-66
2024/03/24 03:22:47;;;;;;;4.55;1.52;;;;;;;12.96;46.28;100222.44;5035213;28;20405;-63
2024/03/24 03:25:12;;;;;;;5.10;1.40;;;;;;;12.96;46.69;100227.81;5018354;28;20041;-63
2024/03/24 03:27:38;;;;;;;5.20;1.85;;;;;;;12.98;47.08;100228.50;5019449;28;20037;-63
2024/03/24 03:30:05;;;;;;;6.78;1.50;;;;;;;13.01;47.08;100221.97;5002370;28;20378;-63
2024/03/24 03:32:30;;;;;;;3.08;1.13;;;;;;;12.99;46.30;100216.75;5016483;28;20172;-63
2024/03/24 03:34:56;;;;;;;5.93;1.55;;;;;;;12.99;47.04;100221.28;5015222;28;20493;-63
2024/03/24 03:37:21;;;;;;;4.00;1.58;;;;;;;12.98;46.50;100215.03;5032869;28;20041;-64
2024/03/24 03:39:47;;;;;;;5.80;1.67;;;;;;;12.95;47.25;100209.16;4998475;28;20401;-64
2024/03/24 03:42:13;;;;;;;4.47;1.70;;;;;;;12.89;46.51;100216.03;5014761;28;20040;-64
2024/03/24 03:44:40;;;;;;;4.80;1.35;;;;;;;12.85;47.77;100225.41;5015074;28;20401;-65
2024/03/24 03:47:05;;;;;;;5.07;1.33;;;;;;;12.77;47.32;100206.53;5014912;28;20517;-63
2024/03/24 03:49:30;;;;;;;5.20;1.50;;;;;;;12.69;47.92;100220.78;5014894;28;20038;-62
2024/03/24 03:51:56;;;;;;;1.58;1.00;;;;;;;12.57;47.37;100205.91;4998348;28;20041;-63
2024/03/24 03:54:22;;;;;;;3.83;1.33;;;;;;;12.49;47.47;100205.00;5011534;28;20041;-63
2024/03/24 03:56:48;;;;;;;6.10;2.10;;;;;;;12.42;47.49;100199.44;4994969;28;20525;-64
2024/03/24 03:59:13;;;;;;;4.38;1.95;;;;;;;12.37;48.10;100203.59;4994845;28;20121;-64
2024/03/24 04:01:38;;;;;;;5.07;1.70;;;;;;;12.37;47.45;100198.22;5011619;28;20052;-65
2024/03/24 04:04:04;;;;;;;11.90;1.83;;;;;;;12.37;47.94;100204.41;5014189;28;20045;-64
2024/03/24 04:06:29;;;;;;;7.85;1.60;;;;;;;12.37;48.27;100204.41;5013585;28;20041;-64
2024/03/24 04:08:56;;;;;;;6.25;1.52;;;;;;;12.39;48.76;100197.06;5016217;28;20113;-65
2024/03/24 04:11:21;;;;;;;5.00;1.40;;;;;;;12.44;48.38;100204.63;5015352;28;20046;-64
2024/03/24 04:13:48;;;;;;;7.75;1.58;;;;;;;12.45;47.53;100206.31;4998492;28;20037;-64
2024/03/24 04:16:14;;;;;;;6.82;2.25;;;;;;;12.47;48.84;100196.25;4998628;28;20038;-64
2024/03/24 04:18:39;;;;;;;5.43;1.48;;;;;;;12.47;48.04;100193.56;4998421;28;20113;-64
2024/03/24 04:21:04;;;;;;;7.15;1.83;;;;;;;12.48;48.82;100193.41;5014652;28;20034;-64
2024/03/24 04:23:30;;;;;;;3.85;1.90;;;;;;;12.48;48.38;100184.53;4998399;28;20485;-65
2024/03/24 04:25:56;;;;;;;3.60;1.65;;;;;;;12.52;47.61;100183.19;4998447;28;20030;-64
2024/03/24 04:28:21;;;;;;;6.68;1.02;;;;;;;12.55;47.86;100182.88;4998363;28;20034;-65
2024/03/24 04:30:47;;;;;;;4.35;1.60;;;;;;;12.56;48.20;100171.97;4998362;28;20033;-64
2024/03/24 04:33:12;;;;;;;7.25;1.83;;;;;;;12.59;47.71;100186.94;5014829;28;20409;-64
2024/03/24 04:35:37;;;;;;;4.30;1.20;;;;;;;12.64;48.37;100184.63;5014620;28;20113;-64
2024/03/24 04:38:03;;;;;;;6.53;1.30;;;;;;;12.70;48.17;100178.63;5015770;28;20107;-64
2024/03/24 04:40:29;;;;;;;4.72;1.80;;;;;;;12.76;48.21;100175.28;4998368;28;20409;-64
2024/03/24 04:42:54;;;;;;;9.98;1.50;;;;;;;12.78;48.14;100175.97;5014597;28;20041;-64
2024/03/24 04:45:19;;;;;;;11.63;1.55;;;;;;;12.79;48.14;100167.75;5014667;28;20406;-63
2024/03/24 04:47:45;;;;;;;11.13;1.67;;;;;;;12.81;48.32;100171.09;5014405;28;20040;-64
2024/03/24 04:50:10;;;;;;;7.07;2.63;;;;;;;12.82;48.43;100170.13;5014634;28;20045;-63
2024/03/24 04:52:36;;;;;;;3.03;1.45;;;;;;;12.89;47.73;100177.53;4997768;28;20099;-63
2024/03/24 04:55:01;;;;;;;10.65;1.73;;;;;;;12.94;48.52;100176.06;5014893;28;20125;-63
2024/03/24 04:57:27;;;;;;;5.05;1.45;;;;;;;12.95;48.64;100176.91;4998605;28;20038;-63
2024/03/24 04:59:53;;;;;;;6.93;1.98;;;;;;;12.99;48.08;100180.94;5014041;28;20497;-63
2024/03/24 05:02:18;;;;;;;6.95;1.65;;;;;;;13.00;47.75;100180.81;5015162;28;20057;-63
2024/03/24 05:04:43;;;;;;;9.88;2.70;;;;;;;13.00;47.97;100180.81;4997577;28;20042;-63
2024/03/24 05:07:09;;;;;;;10.98;2.20;;;;;;;13.01;47.83;100181.66;5015067;28;20037;-63
2024/03/24 05:09:34;;;;;;;9.77;1.75;;;;;;;13.04;47.86;100192.91;5015128;28;20418;-63
2024/03/24 05:12:00;;;;;;;8.98;1.98;;;;;;;13.02;47.68;100183.31;4997482;28;20042;-63
2024/03/24 05:14:25;;;;;;;8.15;2.08;;;;;;;13.05;48.80;100177.63;5013782;28;20041;-63
2024/03/24 05:16:51;;;;;;;2.22;1.42;;;;;;;13.04;48.08;100176.78;5013782;28;20042;-63
2024/03/24 05:19:17;;;;;;;3.50;1.40;;;;;;;13.09;48.73;100187.91;4996370;28;20042;-63
2024/03/24 05:21:44;;;;;;;5.70;1.65;;;;;;;13.11;48.24;100191.31;4997276;28;20097;-63
2024/03/24 05:24:09;;;;;;;7.70;1.40;;;;;;;13.13;47.73;100191.97;5011525;28;20041;-63
2024/03/24 05:26:34;;;;;;;3.80;1.20;;;;;;;13.11;48.54;100191.31;5013163;28;20473;-63
2024/03/24 05:29:03;;;;;;;7.82;1.52;;;;;;;13.07;47.91;100178.28;5014778;28;20030;-63
2024/03/24 05:31:28;;;;;;;2.95;1.20;;;;;;;13.08;47.66;100188.09;5013500;28;20403;-64
2024/03/24 05:33:53;;;;;;;6.30;1.85;;;;;;;13.11;47.58;100185.94;5000248;28;20524;-63
2024/03/24 05:36:19;;;;;;;5.20;1.60;;;;;;;13.11;48.67;100188.63;5034257;28;20055;-63
2024/03/24 05:38:44;;;;;;;9.77;1.90;;;;;;;13.15;47.74;100183.78;5016585;28;20121;-63
2024/03/24 05:41:10;;;;;;;10.05;1.58;;;;;;;13.10;47.43;100181.53;5034357;28;20083;-63
2024/03/24 05:43:36;;;;;;;10.55;1.67;;;;;;;13.12;47.58;100184.91;5000322;28;20408;-63
2024/03/24 05:46:01;;;;;;;3.88;1.38;;;;;;;13.14;48.50;100177.53;5036039;28;20082;-63
2024/03/24 05:48:27;;;;;;;4.72;1.65;;;;;;;13.15;48.08;100178.38;5016767;28;20061;-63
2024/03/24 05:51:03;;;;;;;4.53;1.10;;;;;;;13.18;48.39;100186.09;5016537;28;20099;-63
2024/03/24 05:53:28;;;;;;;5.22;1.60;;;;;;;13.18;47.63;100184.25;4999878;28;20037;-63
2024/03/24 05:55:54;;;;;;;13.07;1.67;;;;;;;13.23;48.81;100191.88;4999696;28;20033;-63
2024/03/24 05:58:20;;;;;;;6.70;1.50;;;;;;;13.24;47.69;100191.69;5016273;28;20065;-63
2024/03/24 06:00:49;;;;;;;3.20;1.42;;;;;;;13.28;47.18;100189.53;5016230;28;20045;-63
2024/03/24 06:03:14;;;;;;;3.42;1.08;;;;;;;13.29;48.56;100192.03;5015990;28;20029;-63
2024/03/24 06:05:40;;;;;;;5.88;1.20;;;;;;;13.31;47.64;100194.59;5034090;28;20030;-63
2024/03/24 06:08:09;;;;;;;6.50;1.77;;;;;;;13.31;48.37;100190.06;5033699;28;20107;-63
2024/03/24 06:10:35;;;;;;;6.53;1.40;;;;;;;13.35;48.50;100196.78;4999683;28;20160;-63
2024/03/24 06:13:00;;;;;;;9.00;1.98;;;;;;;13.36;48.34;100195.78;5015909;28;20036;-63
2024/03/24 06:15:26;;;;;;;8.20;1.23;;;;;;;13.37;48.19;100189.38;5015993;28;20030;-63
2024/03/24 06:17:51;;;;;;;6.95;1.73;;;;;;;13.39;48.12;100200.84;4999796;28;20048;-63
2024/03/24 06:20:17;;;;;;;10.55;2.45;;;;;;;13.40;47.63;100188.22;5015984;28;20095;-63
2024/03/24 06:22:42;;;;;;;6.30;1.92;;;;;;;13.39;47.88;100191.94;5033267;28;20133;-64
2024/03/24 06:25:08;;;;;;;5.93;1.77;;;;;;;13.38;47.44;100185.69;4999531;28;20045;-63
2024/03/24 06:27:34;;;;;;;4.07;1.30;;;;;;;13.38;47.38;100180.31;5015902;28;20413;-63
2024/03/24 06:29:59;;;;;;;2.75;1.20;;;;;;;13.39;48.52;100187.38;5033559;28;20489;-63
2024/03/24 06:32:24;;;;;;;3.50;1.15;;;;;;;13.38;48.38;100185.69;5000598;28;20030;-63
2024/03/24 06:34:50;;;;;;;4.65;1.23;;;;;;;13.42;47.31;100213.13;5034905;28;20041;-63
2024/03/24 06:37:16;;;;;;;5.20;1.30;;;;;;;13.46;47.95;100208.25;5000872;28;20120;-63
2024/03/24 06:39:42;;;;;;;4.47;1.20;;;;;;;13.53;47.08;100214.66;5035214;28;20041;-64
2024/03/24 06:42:08;;;;;;;7.65;2.00;;;;;;;13.51;47.44;100216.69;5036727;28;20543;-64
2024/03/24 06:44:37;;;;;;;5.82;1.60;;;;;;;13.48;47.89;100225.09;5019277;28;20033;-64
2024/03/24 06:47:04;;;;;;;3.55;0.80;;;;;;;13.51;48.15;100235.53;5018740;28;20083;-65
2024/03/24 06:49:29;;;;;;;5.80;1.35;;;;;;;13.42;47.90;100245.41;4999881;28;20029;-64
2024/03/24 06:51:55;;;;;;;5.22;0.88;;;;;;;13.34;48.86;100246.19;5015636;28;20493;-64
2024/03/24 06:54:20;;;;;;;6.10;1.58;;;;;;;13.22;47.59;100249.34;4999608;28;20030;-64
2024/03/24 06:56:45;;;;;;;3.33;1.10;;;;;;;13.13;48.17;100235.00;5018935;28;20072;-63
2024/03/24 06:59:11;;;;;;;1.98;0.93;;;;;;;12.98;48.42;100231.19;5019036;28;20061;-63
2024/03/24 07:01:37;;;;;;;2.83;0.90;;;;;;;12.91;47.81;100238.22;5002141;28;20044;-73
2024/03/24 07:04:04;;;;;;;3.40;1.10;;;;;;;12.86;49.11;100245.91;4999451;28;20509;-64
2024/03/24 07:06:29;;;;;;;7.32;1.35;;;;;;;12.84;47.60;100239.84;5033154;28;20061;-65
2024/03/24 07:08:54;;;;;;;4.70;1.33;;;;;;;12.81;47.86;100246.38;5015349;28;20037;-64
2024/03/24 07:11:20;;;;;;;0.98;0.68;;;;;;;12.85;48.61;100247.75;5015343;28;20120;-64
2024/03/24 07:13:45;;;;;;;2.17;1.00;;;;;;;12.91;48.03;100257.03;5032859;28;20125;-64
2024/03/24 07:16:10;;;;;;;3.85;0.98;;;;;;;12.95;48.56;100250.34;4998484;28;20037;-64
2024/03/24 07:18:36;;;;;;;5.28;1.52;;;;;;;13.10;47.57;100243.38;4998747;28;20044;-63
2024/03/24 07:21:05;;;;;;;4.60;1.45;;;;;;;13.27;47.39;100242.47;5015150;28;20168;-63
2024/03/24 07:23:31;;;;;;;8.98;1.88;;;;;;;13.61;48.07;100246.97;5033986;28;20048;-64
2024/03/24 07:25:56;;;;;;;3.80;1.58;;;;;;;13.99;47.61;100243.72;5015969;28;20116;-64
2024/03/24 07:28:22;;;;;;;4.38;1.27;;;;;;;14.23;47.46;100245.63;5015472;28;20041;-64
2024/03/24 07:30:47;;;;;;;2.88;1.50;;;;;;;14.21;46.95;100243.06;5015115;28;20568;-63
2024/03/24 07:33:13;;;;;;;7.88;1.38;;;;;;;14.23;46.99;100254.53;5032451;28;20037;-64
2024/03/24 07:35:39;;;;;;;3.35;0.98;;;;;;;14.24;46.91;100256.22;4998741;28;20117;-63
2024/03/24 07:38:04;;;;;;;2.88;0.88;;;;;;;14.26;46.78;100256.91;5032815;28;20112;-63
2024/03/24 07:40:29;;;;;;;3.60;1.05;;;;;;;14.42;47.42;100262.34;4998494;28;20121;-63
2024/03/24 07:42:55;;;;;;;1.75;0.93;;;;;;;14.55;46.70;100262.66;5034677;28;20026;-63
2024/03/24 07:45:20;;;;;;;3.10;1.25;;;;;;;14.68;46.85;100261.31;5019008;28;20080;-63
2024/03/24 07:47:46;;;;;;;1.35;1.00;;;;;;;15.01;47.22;100262.97;5018672;28;20040;-64
2024/03/24 07:50:12;;;;;;;2.30;0.82;;;;;;;15.43;45.15;100263.53;5018652;28;20036;-64
2024/03/24 07:52:37;;;;;;;2.75;0.98;;;;;;;15.64;46.36;100263.81;5002357;28;20152;-64
2024/03/24 07:55:03;;;;;;;3.40;0.80;;;;;;;15.93;46.06;100265.84;4998595;28;20038;-64
2024/03/24 07:57:28;;;;;;;4.28;1.30;;;;;;;16.10;45.14;100261.19;5016168;28;20121;-63
2024/03/24 07:59:54;;;;;;;5.10;1.30;;;;;;;16.26;45.86;100264.63;5015094;28;20042;-64
2024/03/24 08:02:19;;;;;;;4.10;1.35;;;;;;;16.72;44.80;100254.66;5016339;28;20030;-65
2024/03/24 08:04:44;;;;;;;1.40;1.10;;;;;;;17.15;44.31;100263.03;5016394;28;20038;-65
2024/03/24 08:07:10;;;;;;;4.72;1.30;;;;;;;17.54;44.25;100255.50;5015233;28;20033;-64
2024/03/24 08:09:35;;;;;;;3.45;1.13;;;;;;;17.78;44.19;100260.59;5015020;28;20054;-64
2024/03/24 08:12:00;;;;;;;2.40;1.08;;;;;;;18.17;44.14;100262.97;5015216;28;20085;-64
2024/03/24 08:14:26;;;;;;;5.10;0.85;;;;;;;18.47;43.64;100250.13;5015262;28;20030;-64
2024/03/24 08:16:54;;;;;;;10.40;1.65;;;;;;;18.69;43.61;100254.53;5014925;28;20029;-65
2024/03/24 08:19:20;;;;;;;2.83;1.10;;;;;;;18.95;43.49;100260.19;5014673;28;20038;-64
2024/03/24 08:21:45;;;;;;;3.38;1.52;;;;;;;19.19;43.18;100267.88;4998284;28;20047;-65
2024/03/24 08:24:12;;;;;;;3.55;1.65;;;;;;;19.41;42.20;100265.94;5014557;28;20486;-64
2024/03/24 08:26:38;;;;;;;4.93;1.27;;;;;;;19.65;41.96;100261.91;5014537;28;20526;-65
2024/03/24 08:29:05;;;;;;;8.60;1.55;;;;;;;19.89;41.93;100255.09;5000934;28;20059;-64
2024/03/24 08:31:30;;;;;;;7.10;1.58;;;;;;;20.08;41.40;100263.31;4998501;28;20068;-65
2024/03/24 08:33:56;;;;;;;5.50;0.93;;;;;;;20.21;41.93;100255.19;5015593;28;20026;-65
2024/03/24 08:36:21;;;;;;;4.57;1.50;;;;;;;20.32;41.86;100273.66;4998163;28;20022;-65
2024/03/24 08:38:46;;;;;;;7.70;1.90;;;;;;;20.36;41.96;100273.25;4998012;28;20033;-66
2024/03/24 08:41:13;;;;;;;7.68;1.92;;;;;;;20.20;42.05;100272.56;4998272;28;20018;-65
2024/03/24 08:43:38;;;;;;;3.85;2.20;;;;;;;19.93;42.16;100269.97;4998214;28;20032;-65
2024/03/24 08:46:04;;;;;;;4.85;1.70;;;;;;;19.73;42.17;100278.88;5015469;28;20022;-64
2024/03/24 08:48:29;;;;;;;4.72;1.55;;;;;;;19.44;42.12;100281.84;4997965;28;20022;-64
2024/03/24 08:50:54;;;;;;;6.65;1.50;;;;;;;19.17;42.34;100280.81;5000312;28;20026;-64
2024/03/24 08:53:20;;;;;;;3.72;1.45;;;;;;;18.97;42.57;100285.25;5017114;28;20466;-64
2024/03/24 08:55:45;;;;;;;6.82;2.20;;;;;;;18.74;42.53;100291.91;5017274;28;20096;-65
2024/03/24 08:58:10;;;;;;;4.22;1.73;;;;;;;18.64;42.72;100289.53;5035025;28;20057;-64
2024/03/24 09:00:36;;;;;;;10.20;1.83;;;;;;;18.50;42.17;100288.59;5034843;28;20531;-64
2024/03/24 09:03:02;;;;;;;8.48;1.60;;;;;;;18.84;41.71;100295.16;5001515;28;20564;-64
2024/03/24 09:05:27;;;;;;;12.23;1.75;;;;;;;19.41;41.58;100292.25;5035367;28;20030;-64
2024/03/24 09:07:53;;;;;;;14.00;1.90;;;;;;;19.57;41.49;100273.75;5000590;28;20021;-64
2024/03/24 09:10:18;;;;;;;4.72;2.30;;;;;;;19.33;42.02;100278.81;5017009;28;20057;-64
2024/03/24 09:12:44;;;;;;;8.90;2.35;;;;;;;19.17;42.24;100285.41;5000838;28;20018;-64
2024/03/24 09:15:09;;;;;;;6.50;2.67;;;;;;;19.15;42.34;100296.44;5034987;28;20396;-64
2024/03/24 09:17:35;;;;;;;5.60;1.90;;;;;;;19.23;41.87;100279.19;5034567;28;20119;-64
2024/03/24 09:20:00;;;;;;;9.23;2.83;;;;;;;19.33;41.77;100284.22;5016731;28;20110;-65
2024/03/24 09:22:26;;;;;;;9.60;2.33;;;;;;;19.37;41.90;100282.81;5034524;28;20025;-65
2024/03/24 09:24:51;;;;;;;4.32;1.92;;;;;;;19.24;42.34;100278.13;5000399;28;20021;-64
2024/03/24 09:27:16;;;;;;;7.43;1.60;;;;;;;19.13;42.23;100286.81;5022458;28;20026;-64
2024/03/24 09:29:42;;;;;;;8.88;1.98;;;;;;;19.65;41.41;100280.94;5013593;28;20068;-64
2024/03/24 09:32:08;;;;;;;7.25;2.20;;;;;;;20.24;41.02;100275.69;5013411;28;20022;-64
2024/03/24 09:34:33;;;;;;;5.90;1.85;;;;;;;20.00;40.56;100276.25;5014477;28;20097;-64
2024/03/24 09:36:58;;;;;;;7.40;2.50;;;;;;;19.75;41.38;100281.38;4996937;28;20112;-64
2024/03/24 09:39:24;;;;;;;8.38;1.88;;;;;;;19.62;41.03;100284.03;5013421;28;20382;-64
2024/03/24 09:41:49;;;;;;;4.25;1.70;;;;;;;19.62;41.20;100273.16;5013246;28;20034;-65
2024/03/24 09:44:15;;;;;;;7.72;1.75;;;;;;;19.49;41.05;100281.22;4997128;28;20026;-64
2024/03/24 09:46:42;;;;;;;8.30;1.63;;;;;;;19.40;40.95;100285.97;5014001;28;20069;-64
2024/03/24 09:49:12;;;;;;;6.47;1.95;;;;;;;19.37;40.90;100289.09;4997256;28;20045;-64
2024/03/24 09:51:38;;;;;;;7.07;1.80;;;;;;;19.21;40.94;100278.50;5014115;28;20030;-63
2024/03/24 09:54:04;;;;;;;6.93;1.92;;;;;;;19.25;40.61;100287.94;5014655;28;20112;-64
2024/03/24 09:56:29;;;;;;;4.63;1.65;;;;;;;19.93;39.73;100275.41;4998435;28;20117;-65
2024/03/24 09:58:58;;;;;;;7.00;1.50;;;;;;;19.73;40.19;100286.19;5018234;28;20048;-64
2024/03/24 10:01:23;;;;;;;5.75;1.52;;;;;;;19.50;40.38;100280.19;5019289;28;20037;-64
2024/03/24 10:03:49;;;;;;;7.72;1.80;;;;;;;19.48;40.47;100272.25;5018646;28;20485;-64
2024/03/24 10:06:15;;;;;;;5.38;1.98;;;;;;;20.17;39.26;100270.25;5005950;28;20033;-64
2024/03/24 10:08:40;;;;;;;6.43;1.83;;;;;;;21.19;38.61;100272.72;4996578;28;20033;-65
2024/03/24 10:11:43;;;;;;;7.38;2.20;;;;;;;21.71;37.47;100260.84;4996411;28;20038;-63
2024/03/24 10:14:08;;;;;;;4.20;1.42;;;;;;;21.40;38.23;100254.22;5013898;28;20060;-64
2024/03/24 10:16:33;;;;;;;5.68;2.33;;;;;;;21.57;37.98;100260.03;4996325;28;20065;-64
2024/03/24 10:19:12;;;;;;;6.15;2.20;;;;;;;21.85;38.41;100251.56;4996366;28;20030;-65
2024/03/24 10:21:39;;;;;;;10.75;1.75;;;;;;;21.58;37.72;100255.44;5013964;28;20038;-65
2024/03/24 10:24:08;;;;;;;5.30;1.90;;;;;;;21.42;38.50;100249.38;5015323;28;20503;-64
2024/03/24 10:26:36;;;;;;;6.40;1.70;;;;;;;21.10;38.33;100254.91;4999305;28;20501;-64
2024/03/24 10:29:05;;;;;;;5.40;1.40;;;;;;;20.87;38.63;100249.84;5033522;28;20040;-64
2024/03/24 10:31:34;;;;;;;6.15;1.52;;;;;;;20.55;38.43;100258.84;5023110;28;20445;-64
2024/03/24 10:34:02;;;;;;;7.00;2.30;;;;;;;20.31;38.60;100269.28;4995970;28;20034;-64
2024/03/24 10:36:38;;;;;;;5.00;1.23;;;;;;;20.25;38.73;100253.78;4996231;28;20129;-63
2024/03/24 10:39:07;;;;;;;6.75;1.30;;;;;;;20.00;38.34;100260.78;4995618;28;20384;-63
2024/03/24 10:41:32;;;;;;;11.07;2.00;;;;;;;19.96;38.94;100254.06;4996270;28;20452;-63
2024/03/24 10:44:01;;;;;;;4.47;1.38;;;;;;;19.83;38.43;100253.19;4996010;28;20112;-64
2024/03/24 10:46:29;;;;;;;5.30;1.20;;;;;;;19.63;38.85;100261.25;4996040;28;20117;-64
2024/03/24 10:48:56;;;;;;;4.85;1.90;;;;;;;19.57;39.08;100259.34;4979563;28;20026;-63
2024/03/24 10:51:21;;;;;;;3.60;1.13;;;;;;;19.47;38.63;100270.56;4996154;28;20121;-63
2024/03/24 10:53:48;;;;;;;7.85;2.08;;;;;;;19.52;38.90;100267.25;4981275;28;20452;-64
2024/03/24 10:56:15;;;;;;;4.50;1.52;;;;;;;19.96;37.72;100264.94;5015154;28;20037;-63
2024/03/24 10:58:42;;;;;;;3.38;1.30;;;;;;;19.87;38.46;100265.34;5015388;28;20112;-63
2024/03/24 11:01:08;;;;;;;4.38;1.00;;;;;;;19.80;37.93;100254.44;4999257;28;20038;-63
2024/03/24 11:03:35;;;;;;;6.50;1.40;;;;;;;19.68;38.53;100265.03;5015501;28;20037;-63
2024/03/24 11:06:01;;;;;;;5.97;1.55;;;;;;;19.54;38.64;100260.56;4998904;28;20037;-63
2024/03/24 11:08:27;;;;;;;3.25;1.58;;;;;;;19.50;38.10;100267.47;5015554;28;20080;-63
2024/03/24 11:10:54;;;;;;;5.55;1.10;;;;;;;19.64;38.19;100265.66;5032974;28;20517;-62
2024/03/24 11:13:31;;;;;;;9.63;1.67;;;;;;;19.59;38.62;100266.25;5016088;28;20083;-63
2024/03/24 11:15:57;;;;;;;4.55;1.33;;;;;;;19.50;38.48;100275.63;5016632;28;20042;-64
2024/03/24 11:18:24;;;;;;;3.45;1.40;;;;;;;19.50;38.41;100270.19;5020559;28;20048;-64